Westminster, SC (29693)

10:55 PM EST on December 28, 2014 (GMT -0500)
Richland | Change Station
CLOSE
Current Station
Personal Weather Station
Location: Westminster, SC
Elevation: 853 ft
Nearby Weather Stations

Elev 853 ft 34.70 °N, 83.03 °W | Updated 1 minute ago

Overcast
Overcast
55.2 °F
Feels Like 55.2 °F
N
0.0
Wind Variable Wind from SE
Gusts 0.0 mph

Today
High -- | Low -- °F
--% Chance of Precip.
Yesterday
High -- | Low -- °F
Precip. -- in
7:38 AM 5:29 PM
First Quarter, 54% visible
Pressure 30.05 in
Visibility 0.8 miles
Clouds Mostly Cloudy 100 ft
Overcast 6500 ft
Dew Point 55 °F
Humidity 98%
Rainfall 0.18 in
Snow Depth Not available.
UV 0 out of 12
Pollen .30 out of 12
Air Quality Not available.
Flu Activity Not available.
METAR KTOC 290335Z AUTO 00000KT 3/4SM BR BKN001 OVC065 13/13 A3005 RMK AO2 T01300128

More Conditions Fewer Conditions

Pressure 30.05 in
Visibility 0.8 miles
Clouds Mostly Cloudy 100 ft
Overcast 6500 ft
Dew Point 55 °F
Humidity 98%
Rainfall 0.18 in
Snow Depth Not available.
UV 0 out of 12
Pollen .30 out of 12
Air Quality Not available.
Flu Activity Not available.
METAR KTOC 290335Z AUTO 00000KT 3/4SM BR BKN001 OVC065 13/13 A3005 RMK AO2 T01300128

More Conditions Fewer Conditions

10-Day Weather Forecast

Almanac

Astronomy

Dec. 28, 2014 Rise Set
Actual Time
Civil Twilight
Nautical Twilight
Astronomical Twilight
Moon
Length of Visible Light
Length of Day
Tomorrow will be .
, % of the Moon is Illuminated

Today's Extremes

State Highs State Lows

Community

WunderPhotos

Upload Photos

1,781,520 photos uploaded!

WunderBlogs® & News

Nearby

Air Quality

  Air Quality AQ Index Pollutant
Not available.

Snow Depth

Station Depth Elevation

Earthquake Activity

City Distance Mag. Time & Date
Minimum magnitude displayed is 2.5.

Coastal Water Temperatures

Place Temperature

Nearby Weather Stations